Time;durP1;ratioP1;P1;durP2;ratioP2;P2;SDS_P1;SDS_P2;PMS_P1;PMS_P2;Temp;Humidity;BMP_temperature;BMP_pressure;BME280_temperature;BME280_humidity;BME280_pressure;Samples;Min_cycle;Max_cycle;Signal;HPM_P1;HPM_P2
2023/01/18 00:02:33;;;;;;;5.75;3.55;;;0.60;99.90;;;;;;6101031;23;20037;-76
2023/01/18 00:05:46;;;;;;;5.80;3.38;;;-0.40;99.90;;;;;;6076642;23;20018;-77
2023/01/18 00:12:36;;;;;;;8.60;3.83;;;-0.20;99.90;;;;;;6051770;23;20061;-78
2023/01/18 00:15:30;;;;;;;5.13;3.50;;;2.00;99.90;;;;;;6134431;23;20213;-78
2023/01/18 00:18:44;;;;;;;8.57;4.65;;;-0.70;99.90;;;;;;6138718;23;20280;-77
2023/01/18 00:21:19;;;;;;;5.30;4.00;;;0.10;99.90;;;;;;6083321;23;20105;-78
2023/01/18 00:24:35;;;;;;;10.60;4.07;;;0.10;99.90;;;;;;6144899;23;20262;-78
2023/01/18 00:31:11;;;;;;;8.18;3.75;;;-0.30;99.90;;;;;;6013991;23;20103;-78
2023/01/18 00:33:48;;;;;;;8.10;4.00;;;0.50;99.90;;;;;;6010798;23;20023;-78
2023/01/18 00:36:34;;;;;;;5.15;3.65;;;0.40;99.90;;;;;;5966741;23;20012;-79
2023/01/18 00:39:00;;;;;;;7.38;4.20;;;0.30;99.90;;;;;;6040846;23;20299;-77
2023/01/18 01:02:05;;;;;;;;;;;;;;;;;;;;;
2023/01/18 01:08:49;;;;;;;7.22;4.57;;;0.30;99.90;;;;;;6054850;23;20074;-76
2023/01/18 01:11:15;;;;;;;6.32;4.07;;;;;;;;;;6115857;23;20019;-76
2023/01/18 01:27:28;;;;;;;8.30;5.18;;;2.10;99.90;;;;;;6263413;22;20175;-74
2023/01/18 01:29:53;;;;;;;8.82;4.32;;;-0.30;99.90;;;;;;6258503;22;20011;-76
2023/01/18 01:32:19;;;;;;;8.05;4.57;;;-0.30;99.90;;;;;;6234628;22;20096;-76
2023/01/18 01:34:45;;;;;;;9.43;5.35;;;0.90;99.90;;;;;;6260292;22;20014;-75
2023/01/18 01:37:10;;;;;;;7.93;4.88;;;2.10;99.90;;;;;;6260687;22;20007;-74
2023/01/18 01:39:36;;;;;;;6.30;4.57;;;-0.20;99.90;;;;;;6286774;22;20017;-78
2023/01/18 01:42:02;;;;;;;10.60;4.78;;;1.20;99.90;;;;;;6259829;22;20023;-77
2023/01/18 01:44:40;;;;;;;8.15;5.38;;;-0.20;99.90;;;;;;6234288;22;20016;-77
2023/01/18 01:47:31;;;;;;;6.38;4.22;;;-0.40;99.90;;;;;;6260452;22;20328;-77
2023/01/18 01:50:01;;;;;;;6.20;4.70;;;1.80;99.90;;;;;;6286169;22;20008;-77
2023/01/18 01:52:32;;;;;;;7.13;5.22;;;2.20;99.90;;;;;;6259883;22;20269;-76
2023/01/18 01:55:07;;;;;;;8.10;4.88;;;-0.40;99.90;;;;;;6285889;22;20326;-76
2023/01/18 01:57:48;;;;;;;;;;;-0.30;99.90;;;;;;6286414;22;20038;-76
2023/01/18 02:00:18;;;;;;;9.63;4.75;;;-0.40;99.90;;;;;;6285907;22;19931;-76
2023/01/18 02:02:48;;;;;;;6.78;4.40;;;-0.30;99.90;;;;;;6259559;22;20030;-76
2023/01/18 02:05:16;;;;;;;6.28;4.30;;;-0.60;99.90;;;;;;6285054;22;20050;-77
2023/01/18 02:07:42;;;;;;;7.70;4.45;;;-0.40;99.90;;;;;;6234220;22;20018;-76
2023/01/18 02:10:09;;;;;;;11.38;6.25;;;-0.40;99.90;;;;;;6260489;22;20007;-76
2023/01/18 02:12:38;;;;;;;6.93;5.25;;;-0.40;99.90;;;;;;6235506;22;20041;-76
2023/01/18 02:15:08;;;;;;;10.02;5.40;;;1.80;99.90;;;;;;6258177;22;20475;-76
2023/01/18 02:18:02;;;;;;;11.30;6.65;;;-0.30;99.90;;;;;;6283596;22;20011;-77
2023/01/18 02:20:40;;;;;;;8.10;6.05;;;-0.40;99.90;;;;;;6284937;22;20039;-78
2023/01/18 02:23:24;;;;;;;8.60;6.25;;;-0.30;99.90;;;;;;6257777;22;20070;-78
2023/01/18 02:26:25;;;;;;;7.20;5.47;;;1.10;99.90;;;;;;6283462;22;20011;-79
2023/01/18 02:29:20;;;;;;;9.45;6.25;;;-0.40;99.90;;;;;;6257162;22;20011;-77
2023/01/18 02:31:55;;;;;;;10.35;7.47;;;-0.40;99.90;;;;;;6284303;22;20220;-78
2023/01/18 02:34:38;;;;;;;13.52;7.70;;;-0.30;99.90;;;;;;6285230;22;20607;-75
2023/01/18 02:37:12;;;;;;;10.10;6.75;;;0.90;99.90;;;;;;6256863;22;20015;-75
2023/01/18 02:39:51;;;;;;;9.97;6.90;;;-0.40;99.90;;;;;;6284423;22;20015;-75
2023/01/18 02:48:21;;;;;;;10.55;6.63;;;-0.30;99.90;;;;;;6283872;22;20214;-75
2023/01/18 02:50:47;;;;;;;9.73;6.75;;;2.20;99.90;;;;;;6257533;22;20008;-75
2023/01/18 02:53:16;;;;;;;10.07;6.90;;;1.90;99.90;;;;;;6283579;22;20080;-76
2023/01/18 02:55:54;;;;;;;11.60;6.88;;;-0.30;99.90;;;;;;6258201;22;20007;-75
2023/01/18 02:58:29;;;;;;;10.88;6.97;;;-0.40;99.90;;;;;;6281622;22;20042;-75
2023/01/18 03:01:25;;;;;;;8.98;6.82;;;1.90;99.90;;;;;;6259642;22;20298;-75
2023/01/18 03:04:02;;;;;;;8.27;6.45;;;-0.40;99.90;;;;;;6288192;22;20065;-75
2023/01/18 03:06:29;;;;;;;8.77;6.45;;;-0.30;99.90;;;;;;6313903;22;20019;-75
2023/01/18 03:08:57;;;;;;;10.65;7.55;;;-0.80;99.90;;;;;;6285380;22;20011;-77
2023/01/18 03:11:26;;;;;;;9.95;7.05;;;0.80;99.90;;;;;;6289067;22;20006;-75
2023/01/18 03:14:22;;;;;;;10.60;8.10;;;-0.30;99.90;;;;;;6288305;22;20029;-75
2023/01/18 03:17:11;;;;;;;9.50;7.75;;;-0.50;99.90;;;;;;6314286;22;20007;-77
2023/01/18 03:25:23;;;;;;;12.95;7.53;;;-0.30;99.90;;;;;;6314016;22;20022;-76
2023/01/18 03:33:47;;;;;;;12.65;7.22;;;0.70;99.90;;;;;;6313988;22;20015;-73
2023/01/18 03:36:26;;;;;;;10.52;8.00;;;-0.30;99.90;;;;;;6288475;22;20066;-77
2023/01/18 03:38:57;;;;;;;9.50;7.47;;;1.30;99.90;;;;;;6313847;22;20334;-78
2023/01/18 03:41:26;;;;;;;12.05;7.93;;;-0.30;99.90;;;;;;6290804;22;20019;-77
2023/01/18 03:43:55;;;;;;;13.10;8.15;;;-0.50;99.90;;;;;;6314941;22;20269;-75
2023/01/18 03:46:25;;;;;;;10.70;7.88;;;-0.20;99.90;;;;;;6316356;22;20042;-76
2023/01/18 03:48:50;;;;;;;14.75;8.02;;;0.20;99.90;;;;;;6316167;22;20014;-76
2023/01/18 03:51:46;;;;;;;11.75;8.30;;;1.40;99.90;;;;;;6290860;22;20061;-79
2023/01/18 03:54:36;;;;;;;13.45;8.57;;;-0.60;99.90;;;;;;6289247;22;20014;-76
2023/01/18 03:57:09;;;;;;;12.40;8.48;;;-0.40;99.90;;;;;;6288288;22;20058;-79
2023/01/18 03:59:37;;;;;;;11.18;6.97;;;1.90;99.90;;;;;;6289222;22;20046;-75
2023/01/18 04:02:04;;;;;;;10.55;7.85;;;-0.60;99.90;;;;;;6284856;22;20022;-77
2023/01/18 04:04:30;;;;;;;12.75;8.13;;;1.70;99.90;;;;;;6259945;22;20042;-74
2023/01/18 04:06:56;;;;;;;13.13;9.00;;;-0.20;99.90;;;;;;6310258;22;20062;-74
2023/01/18 04:09:23;;;;;;;10.55;8.25;;;-0.10;99.90;;;;;;6257930;22;20034;-74
2023/01/18 04:11:49;;;;;;;11.05;8.23;;;-0.60;99.90;;;;;;6285390;22;20018;-77
2023/01/18 04:14:15;;;;;;;11.25;8.00;;;-0.90;99.90;;;;;;6284653;22;20078;-78
2023/01/18 04:16:40;;;;;;;11.18;8.27;;;-1.60;99.90;;;;;;6310424;22;20007;-75
2023/01/18 04:19:07;;;;;;;12.40;7.95;;;1.40;99.90;;;;;;6284502;22;20063;-75
2023/01/18 04:21:33;;;;;;;12.00;8.93;;;-0.80;99.90;;;;;;6310546;22;20011;-74
2023/01/18 04:23:59;;;;;;;10.25;7.57;;;0.30;99.90;;;;;;6284309;22;20019;-75
2023/01/18 04:26:25;;;;;;;11.60;8.00;;;1.60;99.90;;;;;;6259665;22;20201;-74
2023/01/18 04:28:51;;;;;;;14.45;8.85;;;-0.30;99.90;;;;;;6284606;22;20026;-74
2023/01/18 04:31:17;;;;;;;12.80;8.38;;;0.00;99.90;;;;;;6282680;22;20048;-75
2023/01/18 04:33:43;;;;;;;11.50;8.65;;;0.30;99.90;;;;;;6311339;22;20276;-75
2023/01/18 04:36:08;;;;;;;13.27;9.15;;;1.70;99.90;;;;;;6284624;22;20056;-78
2023/01/18 04:38:34;;;;;;;11.75;8.32;;;-0.50;99.90;;;;;;6259511;22;20011;-74
2023/01/18 04:41:04;;;;;;;10.10;8.23;;;1.10;99.90;;;;;;6258696;22;20510;-79
2023/01/18 04:43:30;;;;;;;15.20;8.43;;;-0.60;99.90;;;;;;6311067;22;20038;-76
2023/01/18 04:45:56;;;;;;;12.25;7.85;;;-0.50;99.90;;;;;;6310096;22;20019;-74
2023/01/18 04:48:23;;;;;;;13.85;8.82;;;-0.70;99.90;;;;;;6261867;22;20018;-74
2023/01/18 04:50:49;;;;;;;15.50;9.50;;;1.70;99.90;;;;;;6311524;22;20034;-74
2023/01/18 04:53:16;;;;;;;11.60;7.72;;;0.50;99.90;;;;;;6287430;22;20830;-74
2023/01/18 04:55:42;;;;;;;12.38;8.43;;;0.10;99.90;;;;;;6287185;22;20035;-74
2023/01/18 04:58:08;;;;;;;12.40;8.70;;;-0.60;99.90;;;;;;6261354;22;20019;-78
2023/01/18 05:00:33;;;;;;;12.65;9.02;;;-0.60;99.90;;;;;;6260800;22;20019;-75
2023/01/18 05:02:59;;;;;;;11.35;8.10;;;0.90;99.90;;;;;;6262493;22;20042;-76
2023/01/18 05:05:25;;;;;;;12.60;8.85;;;-0.50;99.90;;;;;;6261937;22;20076;-75
2023/01/18 05:07:50;;;;;;;10.82;8.48;;;2.00;99.90;;;;;;6262051;22;20015;-77
2023/01/18 05:10:16;;;;;;;10.32;7.82;;;-0.10;99.90;;;;;;6260632;22;20015;-74
2023/01/18 05:12:42;;;;;;;12.57;8.18;;;-0.50;99.90;;;;;;6235414;22;20014;-74
2023/01/18 05:15:08;;;;;;;12.73;8.90;;;1.50;99.90;;;;;;6260031;22;20014;-73
2023/01/18 05:17:34;;;;;;;15.43;8.68;;;-0.50;99.90;;;;;;6261701;22;20007;-76
2023/01/18 05:20:05;;;;;;;13.13;8.88;;;1.90;99.90;;;;;;6260269;22;20343;-74
2023/01/18 05:22:32;;;;;;;14.85;8.98;;;-0.70;99.90;;;;;;6262468;22;20117;-73
2023/01/18 05:24:58;;;;;;;12.60;8.88;;;-0.30;99.90;;;;;;6261553;22;20046;-75
2023/01/18 05:27:23;;;;;;;13.80;9.27;;;1.70;99.90;;;;;;6287533;22;20011;-75
2023/01/18 05:29:49;;;;;;;13.93;8.95;;;-0.10;99.90;;;;;;6261531;22;20066;-75
2023/01/18 05:32:16;;;;;;;10.57;7.43;;;1.80;99.90;;;;;;6261027;22;20066;-75
2023/01/18 05:34:42;;;;;;;19.45;10.40;;;2.20;99.90;;;;;;6261089;22;20014;-74
2023/01/18 05:37:11;;;;;;;16.85;9.13;;;-0.70;99.90;;;;;;6235199;22;20007;-74
2023/01/18 05:39:36;;;;;;;12.02;8.70;;;0.00;99.90;;;;;;6236512;22;20007;-76
2023/01/18 05:42:02;;;;;;;14.60;10.13;;;1.00;99.90;;;;;;6259715;22;20193;-74
2023/01/18 05:44:28;;;;;;;15.57;10.20;;;-0.60;99.90;;;;;;6259071;22;20013;-76
2023/01/18 05:46:53;;;;;;;13.07;8.13;;;1.50;99.90;;;;;;6258182;22;20014;-75
2023/01/18 05:49:19;;;;;;;13.43;9.95;;;1.80;99.90;;;;;;6257794;22;20011;-76
2023/01/18 05:51:45;;;;;;;12.63;9.57;;;-1.20;99.90;;;;;;6259824;22;20337;-75
2023/01/18 05:54:10;;;;;;;14.82;10.32;;;1.70;99.90;;;;;;6259958;22;20052;-75
2023/01/18 05:56:36;;;;;;;16.35;10.50;;;1.80;99.90;;;;;;6261721;22;20034;-74
2023/01/18 05:59:02;;;;;;;20.73;11.23;;;-0.50;99.90;;;;;;6233516;22;20019;-75
2023/01/18 06:01:28;;;;;;;14.32;9.75;;;-0.60;99.90;;;;;;6286200;22;20180;-78
2023/01/18 06:03:54;;;;;;;13.25;9.07;;;2.10;99.90;;;;;;6312784;22;20237;-77
2023/01/18 06:06:19;;;;;;;13.63;9.68;;;1.00;99.90;;;;;;6312618;22;20018;-74
2023/01/18 06:08:45;;;;;;;16.88;9.55;;;-1.60;99.90;;;;;;6262177;22;20318;-75
2023/01/18 06:11:11;;;;;;;15.43;10.18;;;0.90;99.90;;;;;;6285706;22;20022;-77
2023/01/18 06:13:36;;;;;;;15.52;9.07;;;0.30;99.90;;;;;;6261826;22;20015;-77
2023/01/18 06:16:36;;;;;;;14.15;8.85;;;1.80;99.90;;;;;;6260068;22;20006;-76
2023/01/18 06:19:02;;;;;;;13.20;9.18;;;1.20;99.90;;;;;;6286080;22;20113;-75
2023/01/18 06:21:27;;;;;;;15.05;9.63;;;-0.70;99.90;;;;;;6312928;22;20240;-75
2023/01/18 06:23:53;;;;;;;12.50;7.95;;;0.00;99.90;;;;;;6312428;22;20056;-77
2023/01/18 06:26:19;;;;;;;15.15;8.68;;;1.40;99.90;;;;;;6286864;22;20209;-79
2023/01/18 06:28:44;;;;;;;11.65;8.63;;;-1.00;99.90;;;;;;6261552;22;20008;-76
2023/01/18 06:31:10;;;;;;;13.07;9.50;;;1.80;99.90;;;;;;6286493;22;20078;-75
2023/01/18 06:33:36;;;;;;;15.57;10.07;;;-0.20;99.90;;;;;;6286593;22;20007;-76
2023/01/18 06:36:02;;;;;;;13.20;8.85;;;-0.30;99.90;;;;;;6286175;22;20010;-75
2023/01/18 06:38:28;;;;;;;14.55;9.63;;;-0.20;99.90;;;;;;6313048;22;20015;-74
2023/01/18 06:40:54;;;;;;;14.20;9.35;;;-0.60;99.90;;;;;;6313219;22;20007;-75
2023/01/18 06:43:20;;;;;;;19.73;10.95;;;-0.60;99.90;;;;;;6312441;22;20309;-75
2023/01/18 06:45:56;;;;;;;15.38;9.85;;;-0.80;99.90;;;;;;6287077;22;20007;-75
2023/01/18 06:48:23;;;;;;;15.15;9.30;;;-0.40;99.90;;;;;;6311960;22;20399;-77
2023/01/18 06:50:51;;;;;;;14.10;8.95;;;-0.10;99.90;;;;;;6287189;22;20121;-74
2023/01/18 06:53:19;;;;;;;13.02;9.82;;;1.00;99.90;;;;;;6261489;22;20011;-76
2023/01/18 06:55:58;;;;;;;15.18;10.13;;;-0.20;99.90;;;;;;6286686;22;20007;-75
2023/01/18 06:58:31;;;;;;;14.75;9.82;;;-0.70;99.90;;;;;;6286297;22;20030;-77
2023/01/18 07:00:59;;;;;;;16.73;9.63;;;-0.70;99.90;;;;;;6311951;22;20038;-76
2023/01/18 07:03:26;;;;;;;19.70;10.60;;;0.60;99.90;;;;;;6316854;22;20158;-75
2023/01/18 07:05:53;;;;;;;17.58;10.50;;;1.70;99.90;;;;;;6317299;22;20102;-77
2023/01/18 07:08:19;;;;;;;14.70;10.30;;;0.80;99.90;;;;;;6290264;22;20018;-75
2023/01/18 07:10:46;;;;;;;16.60;10.25;;;-0.50;99.90;;;;;;6317289;22;20011;-76
2023/01/18 07:13:12;;;;;;;14.98;9.63;;;-0.20;99.90;;;;;;6290532;22;20014;-74
2023/01/18 07:15:38;;;;;;;13.60;10.15;;;1.40;99.90;;;;;;6291471;22;20215;-73
2023/01/18 07:18:04;;;;;;;13.93;8.48;;;-0.60;99.90;;;;;;6291096;22;20011;-75
2023/01/18 07:20:29;;;;;;;13.85;9.35;;;-0.40;99.90;;;;;;6317394;22;20018;-75
2023/01/18 07:22:55;;;;;;;13.10;9.15;;;1.20;99.90;;;;;;6291256;22;20345;-74
2023/01/18 07:25:21;;;;;;;11.75;8.38;;;-0.50;99.90;;;;;;6290541;22;20309;-75
2023/01/18 07:27:47;;;;;;;13.90;9.25;;;-0.60;99.90;;;;;;6266553;22;20011;-75
2023/01/18 07:30:14;;;;;;;17.33;10.25;;;-0.50;99.90;;;;;;6290941;22;20003;-77
2023/01/18 07:32:47;;;;;;;14.20;9.43;;;-0.10;99.90;;;;;;6291300;22;20331;-75
2023/01/18 07:35:13;;;;;;;11.43;8.40;;;0.80;99.90;;;;;;6316879;22;20013;-76
2023/01/18 07:37:39;;;;;;;14.82;9.60;;;-0.10;99.90;;;;;;6291014;22;20010;-75
2023/01/18 07:40:05;;;;;;;13.63;9.23;;;-0.50;99.90;;;;;;6239100;22;20053;-76
2023/01/18 07:42:31;;;;;;;14.60;9.65;;;-0.90;99.90;;;;;;6291943;22;20042;-76
2023/01/18 07:44:56;;;;;;;13.07;8.13;;;2.10;99.90;;;;;;6316678;22;20175;-77
2023/01/18 07:47:22;;;;;;;15.45;9.45;;;0.10;99.90;;;;;;6316281;22;20019;-74
2023/01/18 07:49:48;;;;;;;11.80;8.63;;;0.10;99.90;;;;;;6316737;22;20273;-77
2023/01/18 07:52:16;;;;;;;14.10;9.30;;;-0.40;99.90;;;;;;6290563;22;20080;-78
2023/01/18 07:54:41;;;;;;;13.68;8.38;;;-0.40;99.90;;;;;;6316591;22;20006;-78
2023/01/18 07:57:07;;;;;;;14.02;8.60;;;1.00;99.90;;;;;;6290136;22;20006;-76
2023/01/18 07:59:33;;;;;;;13.25;7.50;;;0.70;99.90;;;;;;6316257;22;20018;-76
2023/01/18 08:02:02;;;;;;;10.63;7.72;;;1.20;99.90;;;;;;6302388;22;20019;-75
2023/01/18 08:04:27;;;;;;;14.77;9.05;;;-0.80;99.90;;;;;;6260839;22;20026;-75
2023/01/18 08:06:56;;;;;;;12.27;8.20;;;1.30;99.90;;;;;;6259914;22;20011;-75
2023/01/18 08:09:22;;;;;;;15.18;7.82;;;-0.40;99.90;;;;;;6284731;22;20290;-71
2023/01/18 08:11:48;;;;;;;11.90;7.65;;;-0.40;99.90;;;;;;6259737;22;20066;-74
2023/01/18 08:14:13;;;;;;;14.55;8.68;;;-0.40;99.90;;;;;;6234704;22;20008;-73
2023/01/18 08:16:39;;;;;;;14.20;8.13;;;-0.30;99.90;;;;;;6285162;22;20014;-75
2023/01/18 08:19:05;;;;;;;13.88;8.23;;;-0.30;99.90;;;;;;6284637;22;20182;-77
2023/01/18 08:21:32;;;;;;;15.43;7.65;;;-0.20;99.90;;;;;;6233531;22;20008;-74
2023/01/18 08:23:58;;;;;;;12.65;7.95;;;0.10;99.90;;;;;;6261207;22;20122;-75
2023/01/18 08:26:24;;;;;;;13.40;8.60;;;-0.10;99.90;;;;;;6285991;22;20085;-75
2023/01/18 08:28:49;;;;;;;11.25;7.07;;;2.00;99.90;;;;;;6261138;22;20012;-74
2023/01/18 08:31:18;;;;;;;12.85;7.22;;;1.00;99.90;;;;;;6260196;22;20053;-73
2023/01/18 08:33:46;;;;;;;12.60;7.80;;;0.00;99.90;;;;;;6261594;22;20069;-75
2023/01/18 08:36:18;;;;;;;11.52;7.07;;;0.50;99.90;;;;;;6237203;22;20015;-74
2023/01/18 08:38:48;;;;;;;16.10;7.55;;;0.10;99.90;;;;;;6261431;22;20014;-75
2023/01/18 08:41:14;;;;;;;9.07;6.25;;;1.10;99.90;;;;;;6286944;22;20533;-75
2023/01/18 08:43:39;;;;;;;11.30;6.03;;;2.40;99.90;;;;;;6287132;22;20088;-73
2023/01/18 08:46:05;;;;;;;8.05;5.50;;;0.60;99.90;;;;;;6236442;22;20007;-73
2023/01/18 08:48:31;;;;;;;11.18;6.70;;;1.90;99.90;;;;;;6261556;22;20018;-75
2023/01/18 08:51:01;;;;;;;9.18;5.97;;;2.90;99.90;;;;;;6286461;22;20167;-74
2023/01/18 08:53:28;;;;;;;10.95;6.10;;;1.70;99.90;;;;;;6286378;22;20314;-74
2023/01/18 08:55:53;;;;;;;9.07;5.25;;;1.30;99.90;;;;;;6257887;22;20083;-75
2023/01/18 08:58:19;;;;;;;8.40;5.53;;;1.90;99.90;;;;;;6258329;22;20197;-74
2023/01/18 09:00:49;;;;;;;8.60;4.97;;;1.20;99.90;;;;;;6285247;22;20019;-74
2023/01/18 09:03:18;;;;;;;10.90;5.93;;;2.60;99.90;;;;;;6299279;22;20027;-76
2023/01/18 09:05:44;;;;;;;9.48;5.10;;;1.10;99.90;;;;;;6311197;22;20030;-76
2023/01/18 09:08:10;;;;;;;8.13;5.50;;;1.30;99.90;;;;;;6284680;22;20106;-75
2023/01/18 09:10:37;;;;;;;10.27;5.60;;;1.90;99.90;;;;;;6285712;22;20007;-74
2023/01/18 09:13:04;;;;;;;9.05;5.00;;;2.80;99.90;;;;;;6260007;22;20015;-74
2023/01/18 09:15:30;;;;;;;6.88;4.60;;;1.70;99.90;;;;;;6310814;22;20073;-73
2023/01/18 09:17:57;;;;;;;9.35;5.90;;;1.20;99.90;;;;;;6287112;22;20011;-75
2023/01/18 09:20:24;;;;;;;7.82;4.57;;;3.00;99.90;;;;;;6260980;22;20011;-73
2023/01/18 09:22:50;;;;;;;10.77;6.07;;;2.60;99.90;;;;;;6310835;22;20358;-74
2023/01/18 09:25:17;;;;;;;8.48;5.50;;;1.40;99.90;;;;;;6310764;22;20011;-76
2023/01/18 09:27:45;;;;;;;9.13;5.28;;;2.50;99.90;;;;;;6312454;22;20257;-74
2023/01/18 09:30:11;;;;;;;12.80;5.88;;;3.40;99.90;;;;;;6287065;22;20007;-74
2023/01/18 09:32:37;;;;;;;9.07;5.20;;;2.20;99.90;;;;;;6312014;22;20015;-74
2023/01/18 09:35:03;;;;;;;8.25;4.63;;;2.50;99.90;;;;;;6261199;22;20007;-76
2023/01/18 09:37:28;;;;;;;8.15;5.00;;;2.60;99.90;;;;;;6311757;22;20271;-75
2023/01/18 09:39:54;;;;;;;7.10;4.90;;;2.60;99.90;;;;;;6261345;22;20050;-75
2023/01/18 09:42:28;;;;;;;8.50;5.10;;;2.80;99.90;;;;;;6286558;22;20015;-74
2023/01/18 09:44:57;;;;;;;9.35;6.10;;;2.60;99.90;;;;;;6313290;22;20041;-78
2023/01/18 09:47:33;;;;;;;8.00;4.85;;;3.10;99.90;;;;;;6286408;22;20014;-77
2023/01/18 09:50:19;;;;;;;7.57;5.32;;;2.80;99.90;;;;;;6286806;22;20282;-75
2023/01/18 09:52:57;;;;;;;8.00;5.22;;;2.80;99.90;;;;;;6286714;22;20209;-76
2023/01/18 09:55:46;;;;;;;7.65;4.82;;;2.90;99.90;;;;;;6286207;22;20007;-76
2023/01/18 09:58:46;;;;;;;8.15;4.90;;;2.90;99.90;;;;;;6286322;22;20226;-77
2023/01/18 10:01:18;;;;;;;8.93;5.35;;;3.10;99.90;;;;;;6313002;22;20042;-76
2023/01/18 10:03:52;;;;;;;8.10;5.30;;;3.40;99.90;;;;;;6317265;22;20073;-76
2023/01/18 10:06:29;;;;;;;11.82;5.30;;;2.90;99.90;;;;;;6317445;22;20011;-75
2023/01/18 10:09:10;;;;;;;8.32;4.78;;;3.30;99.90;;;;;;6291403;22;20010;-75
2023/01/18 10:11:46;;;;;;;8.05;5.43;;;3.10;99.90;;;;;;6291737;22;20065;-74
2023/01/18 10:14:27;;;;;;;6.50;5.03;;;3.40;99.90;;;;;;6317818;22;20013;-76
2023/01/18 10:16:56;;;;;;;9.55;5.80;;;3.40;99.90;;;;;;6317911;22;20006;-74
2023/01/18 10:19:28;;;;;;;7.97;5.55;;;3.40;99.90;;;;;;6291345;22;20029;-75
2023/01/18 10:22:10;;;;;;;5.20;4.45;;;3.60;99.90;;;;;;6317859;22;20007;-74
2023/01/18 10:25:01;;;;;;;6.18;4.07;;;3.40;99.90;;;;;;6316084;22;20489;-76
2023/01/18 10:27:42;;;;;;;7.45;4.45;;;3.80;99.90;;;;;;6299003;22;20040;-74
2023/01/18 10:30:24;;;;;;;10.18;4.65;;;3.70;99.90;;;;;;6317372;22;20048;-75
2023/01/18 10:33:00;;;;;;;6.72;4.80;;;3.80;99.90;;;;;;6317528;22;20502;-75
2023/01/18 10:35:46;;;;;;;6.95;4.68;;;4.10;99.90;;;;;;6316963;22;20007;-74
2023/01/18 10:38:16;;;;;;;7.15;4.75;;;4.20;99.90;;;;;;6291188;22;20010;-76
2023/01/18 10:40:49;;;;;;;8.95;5.28;;;4.20;99.90;;;;;;6317306;22;20010;-74
2023/01/18 10:43:19;;;;;;;9.82;5.40;;;4.30;99.90;;;;;;6317579;22;20109;-74
2023/01/18 10:45:45;;;;;;;7.60;5.30;;;4.60;99.90;;;;;;6317653;22;20074;-76
2023/01/18 10:48:16;;;;;;;10.27;5.65;;;4.40;99.90;;;;;;6266091;22;20018;-74
2023/01/18 10:50:49;;;;;;;6.90;4.63;;;4.60;99.90;;;;;;6316458;22;20017;-75
2023/01/18 10:53:19;;;;;;;8.73;5.00;;;4.60;99.90;;;;;;6290530;22;20021;-75
2023/01/18 10:55:53;;;;;;;7.60;5.03;;;4.50;99.90;;;;;;6291050;22;20171;-75
2023/01/18 10:58:26;;;;;;;8.63;5.50;;;4.80;99.90;;;;;;6316240;22;20010;-75
2023/01/18 11:00:53;;;;;;;10.23;5.30;;;4.90;99.90;;;;;;6316611;22;20020;-76
2023/01/18 11:03:21;;;;;;;8.25;5.25;;;5.20;99.90;;;;;;6289431;22;20053;-76
2023/01/18 11:05:47;;;;;;;8.32;5.30;;;5.10;99.90;;;;;;6316799;22;20255;-74
2023/01/18 11:08:23;;;;;;;6.43;4.55;;;5.30;99.90;;;;;;6265993;22;20018;-74
2023/01/18 11:11:06;;;;;;;8.85;4.95;;;5.20;99.90;;;;;;6291483;22;20003;-75
2023/01/18 11:13:38;;;;;;;7.30;5.03;;;5.30;99.90;;;;;;6316030;22;20015;-75
2023/01/18 11:16:08;;;;;;;7.63;4.78;;;5.20;99.90;;;;;;6317216;22;20170;-75
2023/01/18 11:18:34;;;;;;;9.07;4.80;;;5.60;99.90;;;;;;6290478;22;20010;-75
2023/01/18 11:21:01;;;;;;;6.57;4.15;;;5.70;99.90;;;;;;6264574;22;20224;-75
2023/01/18 11:23:37;;;;;;;5.38;4.43;;;5.40;99.90;;;;;;6290954;22;20017;-75
2023/01/18 11:26:13;;;;;;;7.20;4.85;;;5.60;99.90;;;;;;6316889;22;20114;-75
2023/01/18 11:28:47;;;;;;;5.85;4.15;;;5.70;99.90;;;;;;6316305;22;20089;-75
2023/01/18 11:31:20;;;;;;;6.07;4.87;;;5.70;99.90;;;;;;6290575;22;20042;-76
2023/01/18 11:34:06;;;;;;;7.70;4.60;;;5.70;99.90;;;;;;6290923;22;20010;-75
2023/01/18 11:36:43;;;;;;;11.18;4.90;;;5.40;99.90;;;;;;6316333;22;20006;-75
2023/01/18 11:39:25;;;;;;;8.98;4.40;;;5.40;99.90;;;;;;6316903;22;20253;-75
2023/01/18 11:42:08;;;;;;;5.25;3.95;;;5.00;99.90;;;;;;6316184;22;20301;-75
2023/01/18 11:44:38;;;;;;;5.05;4.00;;;5.10;99.90;;;;;;6316384;22;20295;-75
2023/01/18 11:47:11;;;;;;;8.63;5.22;;;4.90;99.90;;;;;;6316459;22;20099;-75
2023/01/18 11:50:12;;;;;;;6.15;4.57;;;4.60;99.90;;;;;;6312014;22;20025;-75
2023/01/18 11:52:50;;;;;;;6.47;4.38;;;4.60;99.90;;;;;;6288539;22;20297;-75
2023/01/18 11:55:46;;;;;;;7.38;4.47;;;4.80;99.90;;;;;;6315532;22;20038;-76
2023/01/18 11:58:27;;;;;;;7.38;4.15;;;5.00;99.90;;;;;;6268420;22;20041;-77
2023/01/18 12:01:29;;;;;;;7.90;4.15;;;5.40;99.90;;;;;;6317659;22;20010;-75
2023/01/18 12:03:58;;;;;;;6.30;4.18;;;5.70;99.90;;;;;;6312225;22;20030;-74
2023/01/18 12:06:37;;;;;;;6.45;3.60;;;5.90;99.90;;;;;;6311773;22;20019;-75
2023/01/18 12:09:20;;;;;;;6.00;3.90;;;6.20;99.90;;;;;;6285885;22;20118;-74
2023/01/18 12:11:54;;;;;;;4.80;3.85;;;5.80;99.90;;;;;;6311550;22;20171;-77
2023/01/18 12:14:45;;;;;;;6.05;4.35;;;6.00;99.90;;;;;;6286229;22;20066;-78
2023/01/18 12:17:23;;;;;;;4.75;3.90;;;5.70;99.90;;;;;;6285283;22;20313;-75
2023/01/18 12:20:09;;;;;;;6.55;3.90;;;5.50;99.90;;;;;;6311152;22;20224;-77
2023/01/18 12:23:08;;;;;;;8.98;4.90;;;5.20;99.90;;;;;;6309546;22;20007;-76
2023/01/18 12:25:52;;;;;;;8.98;4.50;;;5.10;99.90;;;;;;6284386;22;20042;-77
2023/01/18 12:28:37;;;;;;;7.97;3.50;;;5.00;99.90;;;;;;6283284;22;20026;-75
2023/01/18 12:31:40;;;;;;;5.95;3.90;;;4.80;99.90;;;;;;6282276;22;20049;-75
2023/01/18 12:34:22;;;;;;;4.85;2.88;;;5.20;99.90;;;;;;6285403;22;20015;-76
2023/01/18 12:37:15;;;;;;;9.57;4.57;;;5.10;99.90;;;;;;6285280;22;20313;-77
2023/01/18 12:40:06;;;;;;;6.65;3.78;;;5.00;99.90;;;;;;6309899;22;20080;-77
2023/01/18 12:42:49;;;;;;;6.65;4.47;;;4.80;99.90;;;;;;6283651;22;20062;-76
2023/01/18 12:45:42;;;;;;;6.45;3.67;;;4.70;99.90;;;;;;6283026;22;20037;-74
2023/01/18 12:48:40;;;;;;;7.75;3.97;;;4.90;99.90;;;;;;6285082;22;20007;-75
2023/01/18 12:51:13;;;;;;;8.30;4.20;;;4.60;99.90;;;;;;6309670;22;20015;-78
2023/01/18 12:54:06;;;;;;;5.35;3.65;;;4.60;99.90;;;;;;6284267;22;20007;-75
2023/01/18 12:56:43;;;;;;;5.15;3.53;;;4.40;99.90;;;;;;6276629;22;20321;-75
2023/01/18 12:59:21;;;;;;;5.80;3.60;;;4.40;99.90;;;;;;6308568;22;20019;-76
2023/01/18 13:01:59;;;;;;;5.45;3.10;;;4.60;99.90;;;;;;6311139;22;20011;-76
2023/01/18 13:04:38;;;;;;;6.50;2.95;;;4.50;99.90;;;;;;6315970;22;20032;-75
2023/01/18 13:07:09;;;;;;;7.82;3.83;;;4.40;99.90;;;;;;6289010;22;20019;-73
2023/01/18 13:09:42;;;;;;;4.75;3.60;;;4.40;99.90;;;;;;6288715;22;20049;-76
2023/01/18 13:12:14;;;;;;;6.25;3.78;;;4.40;99.90;;;;;;6286586;22;20042;-75
2023/01/18 13:15:00;;;;;;;5.18;3.85;;;4.30;99.90;;;;;;6289236;22;20206;-76
2023/01/18 13:17:40;;;;;;;5.22;3.40;;;4.30;99.90;;;;;;6311895;22;20056;-75
2023/01/18 13:20:21;;;;;;;6.13;3.97;;;4.20;99.90;;;;;;6288036;22;20385;-77
2023/01/18 13:22:47;;;;;;;6.15;3.97;;;4.10;99.90;;;;;;6286789;22;20316;-76
2023/01/18 13:25:18;;;;;;;5.78;3.90;;;4.10;99.90;;;;;;6286078;22;20014;-77
2023/01/18 13:27:58;;;;;;;7.97;4.30;;;4.00;99.90;;;;;;6311746;22;20099;-76
2023/01/18 13:30:25;;;;;;;6.70;3.92;;;4.00;99.90;;;;;;6311790;22;20055;-75
2023/01/18 13:32:52;;;;;;;5.90;4.07;;;4.00;99.90;;;;;;6286467;22;20372;-75
2023/01/18 13:35:31;;;;;;;7.45;4.65;;;3.90;99.90;;;;;;6261846;22;20017;-78
2023/01/18 13:38:22;;;;;;;6.13;4.20;;;4.00;99.90;;;;;;6286344;22;20019;-76
2023/01/18 13:41:01;;;;;;;5.93;3.58;;;3.90;99.90;;;;;;6294902;22;20019;-76
2023/01/18 13:43:36;;;;;;;5.97;4.57;;;3.90;99.90;;;;;;6314080;22;20010;-76
2023/01/18 13:46:04;;;;;;;8.93;4.18;;;4.00;99.90;;;;;;6286058;22;20205;-77
2023/01/18 13:48:53;;;;;;;8.30;4.30;;;4.10;99.90;;;;;;6285611;22;20449;-77
2023/01/18 13:51:39;;;;;;;7.88;4.55;;;4.00;99.90;;;;;;6312789;22;20129;-77
2023/01/18 13:54:20;;;;;;;6.80;4.03;;;4.00;99.90;;;;;;6286316;22;20022;-76
2023/01/18 13:57:04;;;;;;;7.35;4.53;;;4.40;99.90;;;;;;6286981;22;20007;-77
2023/01/18 13:59:39;;;;;;;6.78;4.45;;;4.00;99.90;;;;;;6286536;22;20029;-77
2023/01/18 14:02:31;;;;;;;7.50;3.80;;;3.90;99.90;;;;;;6307035;22;20023;-77
2023/01/18 14:05:21;;;;;;;7.50;4.20;;;4.00;99.90;;;;;;6307684;22;20074;-76
2023/01/18 14:07:51;;;;;;;5.95;3.83;;;3.90;99.90;;;;;;6308650;22;20011;-76
2023/01/18 14:10:35;;;;;;;9.55;3.72;;;3.90;99.90;;;;;;6308388;22;20019;-77
2023/01/18 14:13:03;;;;;;;7.10;4.10;;;3.60;99.90;;;;;;6283760;22;20072;-75
2023/01/18 14:15:38;;;;;;;6.28;4.30;;;3.90;99.90;;;;;;6282781;22;20007;-74
2023/01/18 14:18:38;;;;;;;5.15;3.65;;;3.90;99.90;;;;;;6280995;22;20074;-76
2023/01/18 14:21:25;;;;;;;3.65;3.17;;;2.30;99.90;;;;;;6306335;22;20011;-76
2023/01/18 14:24:18;;;;;;;10.63;4.32;;;3.90;99.90;;;;;;6283539;22;20019;-76
2023/01/18 14:26:45;;;;;;;5.30;3.63;;;3.90;99.90;;;;;;6284153;22;20076;-75